Latest Weather Observations for Mawson*

IDT60801

Issued at 5:32 am EDT Tuesday 24 January 2017 (issued every 30 minutes, with the page automatically refreshed every 10 minutes)

About weather observations | Map of weather stations | Latest weather observations for ANT | Other Formats
Station Details ID: 300001 Name: MAWSON Lat: -67.60 Lon: 62.88 Height: 9.9 m
Data from the previous 72 hours. | See also: Recent months at Mawson*
Date/Time
EDT
Temp
°C
App
Temp
°C
Dew
Point
°C
Rel
Hum
%
Delta-T
°C
Wind Press
QNH
hPa
Press
MSL
hPa
Rain since
9am
mm
Dir  Spd
km/h
Gust
km/h
Spd
kts
Gust
kts
24/05:30am 1.4 -10.0 -9.5 44 - SE 44 54 24 29 989.5 - -
24/05:00am 2.1 -10.5 -10.4 39 - SE 50 59 27 32 989.5 989.6 -
24/04:30am 1.6 -10.5 -8.7 46 - ESE 48 57 26 31 989.6 - -
24/04:12am 2.2 -9.0 -9.7 41 - SE 43 46 23 25 989.7 - -
24/04:01am 1.7 -7.9 -8.4 47 - E 35 39 19 21 989.9 - -
24/04:00am 2.0 -9.7 -8.9 44 - SE 46 56 25 30 989.8 - -
24/03:30am 2.2 -10.0 -9.7 41 - ESE 48 59 26 32 989.3 - -
24/03:00am 2.1 -11.1 -8.3 46 - ESE 54 63 29 34 989.4 - -
24/02:30am 1.6 -10.3 -6.9 53 - ESE 48 65 26 35 989.8 - -
24/02:26am 2.0 -10.0 -7.8 48 - ESE 48 67 26 36 989.7 - -
24/02:00am 2.0 -11.7 -7.3 50 - ESE 57 69 31 37 989.8 989.9 -
24/01:32am 2.6 -9.8 -7.8 46 - ESE 50 69 27 37 990.0 - -
24/01:30am 2.7 -10.1 -8.0 45 - ESE 52 61 28 33 990.0 - -
24/01:00am 3.0 -9.3 -6.9 48 - ESE 50 72 27 39 989.8 - -
24/12:30am 3.2 -7.9 -6.5 49 - ESE 44 65 24 35 990.3 - -
24/12:21am 3.3 -8.2 -6.4 49 - ESE 46 65 25 35 990.2 - -
24/12:00am 3.6 -9.1 -6.9 46 - ESE 52 65 28 35 990.1 - -
 
Date/Time
EDT
Temp
°C
App
Temp
°C
Dew
Point
°C
Rel
Hum
%
Delta-T
°C
Wind Press
QNH
hPa
Press
MSL
hPa
Rain since
9am
mm
Dir  Spd
km/h
Gust
km/h
Spd
kts
Gust
kts
23/11:36pm 3.8 -6.8 -7.0 45 - ESE 41 67 22 36 990.0 - -
23/11:30pm 3.9 -7.0 -6.1 48 - ESE 43 56 23 30 990.0 - -
23/11:00pm 3.9 -6.6 -6.1 48 - ESE 41 56 22 30 989.9 990.0 -
23/10:53pm 4.1 -8.0 -5.4 50 - ESE 50 69 27 37 989.7 - -
23/10:30pm 3.8 -9.1 -5.4 51 - ESE 54 70 29 38 989.7 - -
23/10:00pm 4.3 -8.3 -6.0 47 - ESE 52 72 28 39 989.9 - -
23/09:30pm 3.7 -9.8 -5.7 50 - ESE 57 80 31 43 989.7 - -
23/09:10pm 4.2 -8.3 -5.3 50 - ESE 52 78 28 42 989.7 - -
23/09:00pm 4.0 -8.5 -5.5 50 - E 52 67 28 36 990.1 - -
23/08:30pm 3.8 -10.5 -5.6 50 - ESE 61 85 33 46 989.8 - -
23/08:02pm 3.5 -9.6 -4.0 58 - ESE 56 74 30 40 989.5 - -
23/08:00pm 3.4 -9.8 -4.3 57 - ESE 56 72 30 39 989.6 989.7 -
23/07:30pm 3.4 -11.6 -5.0 54 - ESE 65 87 35 47 989.1 - -
23/07:06pm 3.3 -13.0 -4.9 55 - ESE 72 91 39 49 988.9 - -
23/07:00pm 3.1 -13.1 -4.3 58 - ESE 72 87 39 47 989.1 - -
23/06:30pm 2.9 -12.5 -5.2 55 - ESE 67 85 36 46 989.4 - -
23/06:02pm 2.8 -10.7 -5.3 55 - ESE 57 82 31 44 989.8 - -
23/06:00pm 2.7 -10.5 -4.9 57 - ESE 56 70 30 38 990.0 - -
23/05:58pm 2.8 -10.1 -5.6 54 - E 54 61 29 33 989.8 - -
23/05:30pm 2.3 -15.2 -5.6 56 - ESE 78 96 42 52 989.4 - -
23/05:00pm 2.8 -13.0 -5.6 54 - ESE 69 91 37 49 989.2 989.3 -
23/04:30pm 2.2 -13.2 -5.9 55 - ESE 67 85 36 46 989.6 - -
23/04:00pm 2.0 -14.3 -5.2 59 - ESE 72 95 39 51 989.6 - -
23/03:30pm 2.0 -14.0 -5.8 56 - ESE 70 96 38 52 989.3 - -
23/03:27pm 2.0 -12.7 -5.8 56 - ESE 63 83 34 45 989.2 - -
23/03:26pm 2.0 -12.3 -6.1 55 - ESE 61 76 33 41 989.4 - -
23/03:00pm 1.7 -16.2 -6.1 56 - ESE 80 104 43 56 989.2 - -
23/02:30pm 1.9 -14.8 -5.7 57 - ESE 74 93 40 50 989.1 - -
23/02:00pm 2.0 -15.1 -5.6 57 - ESE 76 98 41 53 988.8 988.9 -
23/01:49pm 1.8 -13.2 -5.6 58 - ESE 65 83 35 45 988.8 - -
23/01:30pm 1.5 -18.5 -5.8 58 - ESE 91 109 49 59 988.2 - -
23/01:27pm 1.6 -18.4 -5.8 58 - ESE 91 109 49 59 988.3 - -
23/01:21pm 1.5 -19.4 -5.8 58 - ESE 96 109 52 59 988.1 - -
23/01:19pm 1.5 -14.5 -5.8 58 - ESE 70 109 38 59 988.2 - -
23/01:17pm 1.5 -13.5 -5.6 59 - ESE 65 82 35 44 988.6 - -
23/01:00pm 1.4 -17.9 -6.2 57 - ESE 87 109 47 59 988.1 - -
23/12:37pm 1.3 -15.8 -5.8 59 - ESE 76 102 41 55 988.5 - -
23/12:35pm 1.3 -15.8 -5.6 60 - E 76 95 41 51 989.1 - -
23/12:34pm 1.2 -16.7 -5.5 61 - E 80 95 43 51 989.1 - -
23/12:30pm 1.5 -18.5 -6.1 57 - ESE 91 111 49 60 988.2 - -
23/12:00pm 1.5 -17.0 -6.1 57 - ESE 83 104 45 56 988.7 - -
23/11:39am 1.7 -16.5 -5.4 59 - ESE 82 104 44 56 988.6 - -
23/11:38am 1.7 -17.5 -5.4 59 - ESE 87 104 47 56 988.4 - -
23/11:34am 1.7 -13.3 -5.7 58 - ESE 65 98 35 53 988.7 - -
23/11:33am 1.9 -12.0 -5.7 57 - ESE 59 72 32 39 988.6 - -
23/11:30am 1.6 -16.8 -5.5 59 - ESE 83 113 45 61 988.6 - -
23/11:00am 1.6 -16.8 -5.1 61 - ESE 83 104 45 56 988.7 988.8 -
23/10:30am 1.5 -15.9 -5.0 62 - ESE 78 100 42 54 988.6 - -
23/10:26am 1.7 -15.0 -5.2 60 - ESE 74 98 40 53 988.3 - -
23/10:25am 1.6 -14.3 -5.1 61 - ESE 70 85 38 46 988.5 - -
23/10:03am 1.3 -18.7 -5.8 59 - ESE 91 109 49 59 988.3 - -
23/10:00am 1.2 -19.2 -5.7 60 - ESE 93 107 50 58 988.1 - -
23/09:57am 1.3 -18.7 -5.8 59 - ESE 91 106 49 57 988.1 - -
23/09:55am 1.2 -14.6 -5.7 60 - ESE 69 91 37 49 988.3 - -
23/09:36am 1.3 -18.3 -6.0 58 - ESE 89 113 48 61 987.9 - -
23/09:30am 1.1 -18.1 -5.8 60 - ESE 87 104 47 56 988.0 - -
23/09:13am 1.2 -17.7 -6.1 58 - ESE 85 109 46 59 988.0 - -
23/09:00am 1.2 -18.0 -6.1 58 - ESE 87 102 47 55 988.1 - -
23/08:43am 0.9 -17.6 -5.8 61 - SE 83 104 45 56 988.2 - -
23/08:30am 0.9 -17.6 -5.8 61 - ESE 83 100 45 54 988.4 - -
23/08:25am 0.9 -17.6 -6.0 60 - ESE 83 102 45 55 988.4 - -
23/08:00am 0.8 -18.4 -5.8 61 - SE 87 98 47 53 988.5 988.6 -
23/07:36am 0.6 -18.6 -5.8 62 - SE 87 106 47 57 988.3 - -
23/07:30am 0.4 -18.8 -6.0 62 - SE 87 102 47 55 988.4 - -
23/07:02am 0.2 -19.5 -6.4 61 - SE 89 107 48 58 987.8 - -
23/07:00am 0.1 -19.9 -6.3 62 - SE 91 107 49 58 988.1 - -
23/06:30am -0.3 -20.4 -6.7 62 - SE 91 109 49 59 988.3 - -
23/06:00am -0.3 -20.4 -6.9 61 - SE 91 113 49 61 988.4 - -
23/05:43am -0.1 -19.1 -7.4 58 - SE 85 104 46 56 988.3 - -
23/05:30am -0.1 -18.7 -6.9 60 - SE 83 98 45 53 988.4 - -
23/05:25am -0.2 -18.6 -7.0 60 - SE 82 91 44 49 988.3 - -
23/05:22am -0.2 -13.9 -7.2 59 - ESE 57 76 31 41 988.7 - -
23/05:00am -0.4 -19.0 -6.8 62 - SE 83 113 45 61 987.7 987.8 -
23/04:31am -0.6 -19.9 -7.0 62 - SE 87 106 47 57 988.2 - -
23/04:30am -0.5 -20.2 -7.1 61 - SE 89 106 48 57 988.3 - -
23/04:00am -0.2 -20.3 -7.2 59 - ESE 91 113 49 61 988.4 - -
23/03:30am 0.1 -19.3 -7.2 58 - SE 87 106 47 57 988.4 - -
23/03:00am -0.1 -20.6 -6.9 60 - SE 93 111 50 60 988.0 - -
23/02:39am -0.1 -19.4 -6.9 60 - ESE 87 106 47 57 988.3 - -
23/02:30am 0.1 -18.4 -6.5 61 - SE 83 100 45 54 988.2 - -
23/02:00am 0.2 -18.7 -6.6 60 - ESE 85 107 46 58 988.2 988.3 -
23/01:39am 0.2 -18.4 -6.8 59 - ESE 83 102 45 55 988.4 - -
23/01:35am 0.2 -18.7 -6.6 60 - ESE 85 95 46 51 988.2 - -
23/01:32am 0.2 -14.9 -6.4 61 - ESE 65 83 35 45 988.5 - -
23/01:30am 0.2 -18.7 -6.4 61 - ESE 85 106 46 57 988.3 - -
23/01:21am 0.3 -17.3 -6.8 59 - ESE 78 104 42 56 988.2 - -
23/01:00am 0.6 -14.6 -7.1 56 - ESE 65 83 35 45 988.5 - -
23/12:33am 0.9 -14.3 -7.3 54 - E 65 83 35 45 989.0 - -
23/12:30am 0.8 -14.7 -7.0 56 - E 67 83 36 45 989.2 - -
23/12:00am 0.8 -13.2 -7.0 56 - E 59 78 32 42 989.4 - -
 
Date/Time
EDT
Temp
°C
App
Temp
°C
Dew
Point
°C
Rel
Hum
%
Delta-T
°C
Wind Press
QNH
hPa
Press
MSL
hPa
Rain since
9am
mm
Dir  Spd
km/h
Gust
km/h
Spd
kts
Gust
kts
22/11:32pm 0.9 -13.9 -6.9 56 - E 63 82 34 44 989.5 - -
22/11:30pm 1.1 -13.7 -7.1 54 - E 63 80 34 43 989.5 - -
22/11:00pm 1.1 -14.8 -7.1 54 - E 69 89 37 48 989.3 989.4 -
22/10:48pm 1.0 -14.1 -6.8 56 - E 65 83 35 45 989.4 - -
22/10:30pm 1.0 -14.1 -6.5 57 - E 65 76 35 41 989.6 - -
22/10:17pm 1.1 -11.5 -6.0 59 - E 52 72 28 39 989.9 - -
22/10:00pm 1.1 -12.5 -6.4 57 - E 57 72 31 39 989.9 - -
22/09:30pm 1.1 -13.6 -6.7 56 - E 63 83 34 45 990.1 - -
22/09:00pm 1.2 -11.8 -6.6 56 - E 54 76 29 41 990.2 - -
22/08:30pm 1.1 -12.5 -6.7 56 - E 57 82 31 44 990.1 - -
22/08:10pm 1.2 -12.4 -7.1 54 - E 57 76 31 41 990.0 - -
22/08:00pm 1.2 -12.8 -7.1 54 - E 59 74 32 40 990.0 990.1 -
22/07:31pm 1.1 -12.6 -7.4 53 - E 57 76 31 41 990.0 - -
22/07:30pm 1.0 -13.0 -6.5 57 - E 59 76 32 41 989.9 - -
22/07:00pm 1.1 -13.4 -7.9 51 - E 61 80 33 43 989.7 - -
22/06:34pm 1.0 -13.8 -7.7 52 - ESE 63 82 34 44 989.2 - -
22/06:30pm 0.9 -13.9 -7.8 52 - ESE 63 80 34 43 989.4 - -
22/06:07pm 0.9 -13.5 -7.6 53 - ESE 61 80 33 43 989.3 - -
22/06:00pm 0.9 -13.2 -8.1 51 - ESE 59 76 32 41 989.4 - -
22/05:30pm 0.7 -12.1 -8.0 52 - ESE 52 72 28 39 989.9 - -
22/05:00pm 0.5 -13.0 -7.9 53 - ESE 56 80 30 43 989.8 989.9 -
22/04:31pm 0.4 -13.2 -8.5 51 - ESE 56 76 30 41 989.6 - -
22/04:30pm 0.5 -13.1 -9.0 49 - ESE 56 72 30 39 989.8 - -
22/04:00pm 0.1 -13.1 -8.6 52 - ESE 54 76 29 41 990.3 - -
22/03:30pm 0.1 -13.5 -8.8 51 - E 56 76 30 41 990.7 - -
22/03:02pm -0.4 -11.6 -9.3 51 - ESE 43 61 23 33 991.2 - -
22/03:00pm -0.4 -11.7 -9.0 52 - ESE 44 61 24 33 991.2 - -
22/02:31pm -0.7 -12.1 -9.3 52 - ESE 44 63 24 34 991.6 - -
22/02:30pm -0.6 -12.4 -9.5 51 - ESE 46 63 25 34 991.6 - -
22/02:00pm -1.1 -12.9 -9.9 51 - ESE 46 65 25 35 992.0 992.1 -
22/01:45pm -0.9 -12.7 -10.2 49 - ESE 46 65 25 35 991.9 - -
22/01:30pm -1.0 -11.9 -10.6 48 - ESE 41 54 22 29 992.4 - -
22/01:06pm -1.3 -13.1 -10.4 50 - ESE 46 65 25 35 992.5 - -
22/01:00pm -1.4 -12.6 -10.0 52 - ESE 43 56 23 30 992.6 - -
22/12:47pm -1.5 -12.8 -10.8 49 - ESE 43 61 23 33 992.7 - -
22/12:30pm -1.7 -13.5 -10.7 50 - ESE 46 63 25 34 992.7 - -
22/12:08pm -1.8 -13.1 -10.8 50 - ESE 43 61 23 33 992.8 - -
22/12:00pm -2.1 -15.1 -10.6 52 - ESE 52 63 28 34 992.8 - -
22/11:30am -2.4 -14.6 -10.6 53 - ESE 48 61 26 33 993.0 - -
22/11:00am -3.2 -17.2 -11.6 52 - SE 57 69 31 37 993.1 993.2 -
22/10:30am -3.1 -17.5 -11.3 53 - SE 59 69 32 37 993.4 - -
22/10:00am -3.5 -17.5 -11.7 53 - SE 57 69 31 37 993.5 - -
22/09:30am -3.5 -17.5 -11.7 53 - SE 57 67 31 36 993.9 - -
22/09:00am -3.8 -17.2 -11.5 55 - SE 54 63 29 34 994.4 - -
22/08:30am -3.9 -18.2 -10.9 58 - SE 59 69 32 37 994.8 - -
22/08:00am -3.7 -17.7 -11.6 54 - SE 57 69 31 37 995.2 995.3 -
22/07:30am -3.7 -17.1 -11.2 56 - SE 54 61 29 33 995.8 - -
22/07:00am -3.8 -16.4 -10.6 59 - SE 50 59 27 32 996.2 - -
22/06:30am -3.5 -14.9 -9.9 61 - SE 44 52 24 28 996.9 - -
22/06:00am -2.8 -14.6 -9.7 59 - SE 46 56 25 30 997.1 - -
22/05:30am -2.5 -13.7 -9.2 60 - SE 43 50 23 27 997.3 - -
22/05:00am -2.1 -12.8 -8.6 61 - ESE 41 48 22 26 997.5 997.6 -
22/04:30am -0.8 -9.8 -8.2 57 - ESE 32 43 17 23 997.6 - -
22/04:00am -0.6 -9.2 -8.0 57 - ESE 30 37 16 20 997.7 - -
22/03:30am -0.2 -7.6 -7.0 60 - ESE 24 32 13 17 997.8 - -
22/03:00am 0.5 -6.0 -6.3 60 - ESE 20 24 11 13 998.1 - -
22/02:30am 0.9 -1.7 -5.3 63 - CALM 0 7 0 4 998.4 - -
22/02:00am 0.6 -3.1 -5.0 66 - E 6 9 3 5 998.9 999.0 -
22/01:30am 0.4 -3.5 -4.2 71 - ENE 7 9 4 5 999.2 - -
22/01:00am 1.1 -2.9 -5.8 60 - E 7 11 4 6 999.2 - -
22/12:30am 1.5 -2.4 -6.3 56 - ENE 6 9 3 5 999.3 - -
22/12:00am 1.4 -3.6 -4.6 64 - SSW 13 17 7 9 999.7 - -
 
Date/Time
EDT
Temp
°C
App
Temp
°C
Dew
Point
°C
Rel
Hum
%
Delta-T
°C
Wind Press
QNH
hPa
Press
MSL
hPa
Rain since
9am
mm
Dir  Spd
km/h
Gust
km/h
Spd
kts
Gust
kts
21/11:30pm 1.6 -2.3 -5.1 61 - SSW 7 13 4 7 1000.1 - -
21/11:00pm 1.1 -2.8 -4.3 67 - E 7 9 4 5 1000.5 1000.6 -
21/10:30pm 0.3 -4.5 -5.7 64 - NE 11 13 6 7 1001.1 - -
21/10:00pm 0.5 -3.9 -5.7 63 - NE 9 11 5 6 1001.2 - -
21/09:30pm 0.8 -3.6 -5.4 63 - NE 9 11 5 6 1001.1 - -
21/09:00pm 1.0 -3.0 -6.1 59 - N 7 11 4 6 1001.0 - -
21/08:30pm 1.3 -2.5 -6.0 58 - E 6 9 3 5 1001.2 - -
21/08:00pm 0.6 -4.7 -7.1 56 - NE 13 15 7 8 1001.5 1001.6 -
21/07:30pm 1.0 -4.7 -8.0 51 - NNE 15 19 8 10 1001.7 - -
21/07:00pm 0.5 -4.9 -8.7 50 - NNE 13 17 7 9 1001.7 - -
21/01:00pm -2.7 -14.0 -10.5 55 - SE 43 50 23 27 1001.7 - -
21/12:30pm -3.0 -14.8 -10.3 57 - SE 46 54 25 29 1001.9 - -
21/12:00pm -3.2 -14.5 -10.7 56 - SE 43 48 23 26 1002.1 - -
21/11:30am -3.4 -14.7 -11.1 55 - SE 43 50 23 27 1002.2 - -
21/11:00am -3.4 -14.7 -10.7 57 - SE 43 50 23 27 1002.2 1002.3 -

Other Formats:

Comma delimited format used in spreadsheet applications
http://www.bom.gov.au/fwo/IDT60803/IDT60803.89564.axf

JavaScript Object Notation format (JSON) in row-major order
http://www.bom.gov.au/fwo/IDT60803/IDT60803.89564.json